sensor_id;sensor_type;location;lat;lon;timestamp;pressure;altitude;pressure_sealevel;temperature;humidity
14800;BME280;7491;57.750;11.970;2023-04-02T00:02:31;78021.25;;;-142.11;100.00
14800;BME280;7491;57.750;11.970;2023-04-02T00:05:30;78023.28;;;-142.11;100.00
14800;BME280;7491;57.750;11.970;2023-04-02T00:08:01;78031.44;;;-142.11;100.00
14800;BME280;7491;57.750;11.970;2023-04-02T00:10:30;78033.47;;;-142.11;100.00
14800;BME280;7491;57.750;11.970;2023-04-02T00:13:03;78033.47;;;-142.11;100.00
14800;BME280;7491;57.750;11.970;2023-04-02T00:15:31;78041.63;;;-142.11;100.00
14800;BME280;7491;57.750;11.970;2023-04-02T00:17:58;78047.75;;;-142.11;100.00
14800;BME280;7491;57.750;11.970;2023-04-02T00:20:27;78060.00;;;-142.11;100.00
14800;BME280;7491;57.750;11.970;2023-04-02T00:22:54;78051.84;;;-142.11;100.00
14800;BME280;7491;57.750;11.970;2023-04-02T00:25:25;78053.88;;;-142.11;100.00
14800;BME280;7491;57.750;11.970;2023-04-02T00:27:52;78053.88;;;-142.11;100.00
14800;BME280;7491;57.750;11.970;2023-04-02T00:30:19;78064.06;;;-142.11;100.00
14800;BME280;7491;57.750;11.970;2023-04-02T00:32:46;78068.16;;;-142.11;100.00
14800;BME280;7491;57.750;11.970;2023-04-02T00:35:19;78072.22;;;-142.11;100.00
14800;BME280;7491;57.750;11.970;2023-04-02T00:37:48;78084.47;;;-142.11;100.00
14800;BME280;7491;57.750;11.970;2023-04-02T00:40:19;78094.66;;;-142.11;100.00
14800;BME280;7491;57.750;11.970;2023-04-02T00:42:49;78098.75;;;-142.11;100.00
14800;BME280;7491;57.750;11.970;2023-04-02T00:45:21;78104.88;;;-142.11;100.00
14800;BME280;7491;57.750;11.970;2023-04-02T00:47:49;78115.06;;;-142.11;100.00
14800;BME280;7491;57.750;11.970;2023-04-02T00:50:23;78127.31;;;-142.11;100.00
14800;BME280;7491;57.750;11.970;2023-04-02T00:52:53;78121.19;;;-142.11;100.00
14800;BME280;7491;57.750;11.970;2023-04-02T00:55:24;78141.59;;;-142.11;100.00
14800;BME280;7491;57.750;11.970;2023-04-02T00:57:54;78151.78;;;-142.11;100.00
14800;BME280;7491;57.750;11.970;2023-04-02T01:00:27;78149.75;;;-142.11;100.00
14800;BME280;7491;57.750;11.970;2023-04-02T01:03:14;78161.97;;;-142.11;100.00
14800;BME280;7491;57.750;11.970;2023-04-02T01:05:56;78168.09;;;-142.11;100.00
14800;BME280;7491;57.750;11.970;2023-04-02T01:08:35;78166.06;;;-142.11;100.00
14800;BME280;7491;57.750;11.970;2023-04-02T01:11:12;78159.94;;;-142.11;100.00
14800;BME280;7491;57.750;11.970;2023-04-02T01:13:47;78155.84;;;-142.11;100.00
14800;BME280;7491;57.750;11.970;2023-04-02T01:16:23;78168.09;;;-142.11;100.00
14800;BME280;7491;57.750;11.970;2023-04-02T01:18:56;78166.06;;;-142.11;100.00
14800;BME280;7491;57.750;11.970;2023-04-02T01:21:46;78184.41;;;-142.11;100.00
14800;BME280;7491;57.750;11.970;2023-04-02T01:24:17;78192.56;;;-142.11;100.00
14800;BME280;7491;57.750;11.970;2023-04-02T01:26:51;78190.53;;;-142.11;100.00
14800;BME280;7491;57.750;11.970;2023-04-02T01:29:21;78194.63;;;-142.11;100.00
14800;BME280;7491;57.750;11.970;2023-04-02T01:31:50;78190.53;;;-142.11;100.00
14800;BME280;7491;57.750;11.970;2023-04-02T01:34:20;78208.91;;;-142.11;100.00
14800;BME280;7491;57.750;11.970;2023-04-02T01:36:56;78190.53;;;-142.11;100.00
14800;BME280;7491;57.750;11.970;2023-04-02T01:39:32;78186.47;;;-142.11;100.00
14800;BME280;7491;57.750;11.970;2023-04-02T01:42:10;78180.34;;;-142.11;100.00
14800;BME280;7491;57.750;11.970;2023-04-02T01:44:43;78178.31;;;-142.11;100.00
14800;BME280;7491;57.750;11.970;2023-04-02T01:47:14;78172.19;;;-142.11;100.00
14800;BME280;7491;57.750;11.970;2023-04-02T01:49:43;78176.25;;;-142.11;100.00
14800;BME280;7491;57.750;11.970;2023-04-02T01:52:12;78182.38;;;-142.11;100.00
14800;BME280;7491;57.750;11.970;2023-04-02T01:54:41;78186.47;;;-142.11;100.00
14800;BME280;7491;57.750;11.970;2023-04-02T01:57:08;78196.66;;;-142.11;100.00
14800;BME280;7491;57.750;11.970;2023-04-02T01:59:35;78198.69;;;-142.11;100.00
14800;BME280;7491;57.750;11.970;2023-04-02T02:02:04;78202.78;;;-142.11;100.00
14800;BME280;7491;57.750;11.970;2023-04-02T02:04:32;78210.94;;;-142.11;100.00
14800;BME280;7491;57.750;11.970;2023-04-02T02:07:00;78215.00;;;-142.11;100.00
14800;BME280;7491;57.750;11.970;2023-04-02T02:09:29;78206.84;;;-142.11;100.00
14800;BME280;7491;57.750;11.970;2023-04-02T02:11:57;78206.84;;;-142.11;100.00
14800;BME280;7491;57.750;11.970;2023-04-02T02:14:27;78206.84;;;-142.11;100.00
14800;BME280;7491;57.750;11.970;2023-04-02T02:16:56;78196.66;;;-142.11;100.00
14800;BME280;7491;57.750;11.970;2023-04-02T02:19:28;78196.66;;;-142.11;100.00
14800;BME280;7491;57.750;11.970;2023-04-02T02:22:05;78206.84;;;-142.11;100.00
14800;BME280;7491;57.750;11.970;2023-04-02T02:24:33;78219.09;;;-142.11;100.00
14800;BME280;7491;57.750;11.970;2023-04-02T02:27:26;78223.16;;;-142.11;100.00
14800;BME280;7491;57.750;11.970;2023-04-02T02:30:03;78233.38;;;-142.11;100.00
14800;BME280;7491;57.750;11.970;2023-04-02T02:32:32;78243.56;;;-142.11;100.00
14800;BME280;7491;57.750;11.970;2023-04-02T02:35:09;78229.28;;;-142.11;100.00
14800;BME280;7491;57.750;11.970;2023-04-02T02:37:39;78231.34;;;-142.11;100.00
14800;BME280;7491;57.750;11.970;2023-04-02T02:40:11;78237.44;;;-142.11;100.00
14800;BME280;7491;57.750;11.970;2023-04-02T02:42:43;78241.53;;;-142.11;100.00
14800;BME280;7491;57.750;11.970;2023-04-02T02:45:16;78237.44;;;-142.11;100.00
14800;BME280;7491;57.750;11.970;2023-04-02T02:47:45;78245.59;;;-142.11;100.00
14800;BME280;7491;57.750;11.970;2023-04-02T02:50:18;78253.78;;;-142.11;100.00
14800;BME280;7491;57.750;11.970;2023-04-02T02:52:50;78266.00;;;-142.11;100.00
14800;BME280;7491;57.750;11.970;2023-04-02T02:55:21;78261.94;;;-142.11;100.00
14800;BME280;7491;57.750;11.970;2023-04-02T02:57:52;78261.94;;;-142.11;100.00
14800;BME280;7491;57.750;11.970;2023-04-02T03:00:21;78268.03;;;-142.11;100.00
14800;BME280;7491;57.750;11.970;2023-04-02T03:02:50;78261.94;;;-142.11;100.00
14800;BME280;7491;57.750;11.970;2023-04-02T03:05:21;78259.88;;;-142.11;100.00
14800;BME280;7491;57.750;11.970;2023-04-02T03:07:50;78268.03;;;-142.11;100.00
14800;BME280;7491;57.750;11.970;2023-04-02T03:10:21;78272.13;;;-142.11;100.00
14800;BME280;7491;57.750;11.970;2023-04-02T03:12:56;78280.28;;;-142.11;100.00
14800;BME280;7491;57.750;11.970;2023-04-02T03:15:30;78280.28;;;-142.11;100.00
14800;BME280;7491;57.750;11.970;2023-04-02T03:18:00;78268.03;;;-142.11;100.00
14800;BME280;7491;57.750;11.970;2023-04-02T03:20:34;78266.00;;;-142.11;100.00
14800;BME280;7491;57.750;11.970;2023-04-02T03:23:10;78280.28;;;-142.11;100.00
14800;BME280;7491;57.750;11.970;2023-04-02T03:25:40;78280.28;;;-142.11;100.00
14800;BME280;7491;57.750;11.970;2023-04-02T03:28:13;78302.72;;;-142.11;100.00
14800;BME280;7491;57.750;11.970;2023-04-02T03:30:46;78308.84;;;-142.11;100.00
14800;BME280;7491;57.750;11.970;2023-04-02T03:33:17;78319.03;;;-142.11;100.00
14800;BME280;7491;57.750;11.970;2023-04-02T03:35:52;78331.28;;;-142.11;100.00
14800;BME280;7491;57.750;11.970;2023-04-02T03:38:25;78343.53;;;-142.11;100.00
14800;BME280;7491;57.750;11.970;2023-04-02T03:40:59;78349.63;;;-142.11;100.00
14800;BME280;7491;57.750;11.970;2023-04-02T03:43:31;78345.56;;;-142.11;100.00
14800;BME280;7491;57.750;11.970;2023-04-02T03:46:09;78351.69;;;-142.11;100.00
14800;BME280;7491;57.750;11.970;2023-04-02T03:48:40;78353.72;;;-142.11;100.00
14800;BME280;7491;57.750;11.970;2023-04-02T03:51:13;78357.78;;;-142.11;100.00
14800;BME280;7491;57.750;11.970;2023-04-02T03:53:43;78363.91;;;-142.11;100.00
14800;BME280;7491;57.750;11.970;2023-04-02T03:56:21;78382.28;;;-142.11;100.00
14800;BME280;7491;57.750;11.970;2023-04-02T03:58:55;78382.28;;;-142.11;100.00
14800;BME280;7491;57.750;11.970;2023-04-02T04:01:30;78384.31;;;-142.11;100.00
14800;BME280;7491;57.750;11.970;2023-04-02T04:04:02;78384.31;;;-142.11;100.00
14800;BME280;7491;57.750;11.970;2023-04-02T04:06:33;78398.59;;;-142.11;100.00
14800;BME280;7491;57.750;11.970;2023-04-02T04:09:07;78400.63;;;-142.11;100.00
14800;BME280;7491;57.750;11.970;2023-04-02T04:11:36;78402.66;;;-142.11;100.00
14800;BME280;7491;57.750;11.970;2023-04-02T04:14:08;78404.72;;;-142.11;100.00
14800;BME280;7491;57.750;11.970;2023-04-02T04:16:40;78402.66;;;-142.11;100.00
14800;BME280;7491;57.750;11.970;2023-04-02T04:19:14;78402.66;;;-142.11;100.00
14800;BME280;7491;57.750;11.970;2023-04-02T04:21:47;78402.66;;;-142.11;100.00
14800;BME280;7491;57.750;11.970;2023-04-02T04:24:16;78410.84;;;-142.11;100.00
14800;BME280;7491;57.750;11.970;2023-04-02T04:26:50;78427.16;;;-142.11;100.00
14800;BME280;7491;57.750;11.970;2023-04-02T04:29:31;78427.16;;;-142.11;100.00
14800;BME280;7491;57.750;11.970;2023-04-02T04:32:14;78431.22;;;-142.11;100.00
14800;BME280;7491;57.750;11.970;2023-04-02T04:34:45;78429.19;;;-142.11;100.00
14800;BME280;7491;57.750;11.970;2023-04-02T04:37:19;78429.19;;;-142.11;100.00
14800;BME280;7491;57.750;11.970;2023-04-02T04:39:53;78433.28;;;-142.11;100.00
14800;BME280;7491;57.750;11.970;2023-04-02T04:42:24;78429.19;;;-142.11;100.00
14800;BME280;7491;57.750;11.970;2023-04-02T04:44:57;78431.22;;;-142.11;100.00
14800;BME280;7491;57.750;11.970;2023-04-02T04:47:28;78429.19;;;-142.11;100.00
14800;BME280;7491;57.750;11.970;2023-04-02T04:50:00;78427.16;;;-142.11;100.00
14800;BME280;7491;57.750;11.970;2023-04-02T04:52:33;78431.22;;;-142.11;100.00
14800;BME280;7491;57.750;11.970;2023-04-02T04:55:01;78423.06;;;-142.11;100.00
14800;BME280;7491;57.750;11.970;2023-04-02T04:57:30;78431.22;;;-142.11;100.00
14800;BME280;7491;57.750;11.970;2023-04-02T05:00:04;78431.22;;;-142.11;100.00
14800;BME280;7491;57.750;11.970;2023-04-02T05:02:38;78429.19;;;-142.11;100.00
14800;BME280;7491;57.750;11.970;2023-04-02T05:05:15;78443.47;;;-142.11;100.00
14800;BME280;7491;57.750;11.970;2023-04-02T05:07:48;78433.28;;;-142.11;100.00
14800;BME280;7491;57.750;11.970;2023-04-02T05:10:19;78435.31;;;-142.11;100.00
14800;BME280;7491;57.750;11.970;2023-04-02T05:12:54;78437.34;;;-142.11;100.00
14800;BME280;7491;57.750;11.970;2023-04-02T05:15:26;78439.38;;;-142.11;100.00
14800;BME280;7491;57.750;11.970;2023-04-02T05:18:07;78439.38;;;-142.11;100.00
14800;BME280;7491;57.750;11.970;2023-04-02T05:20:42;78435.31;;;-142.11;100.00
14800;BME280;7491;57.750;11.970;2023-04-02T05:23:16;78435.31;;;-142.11;100.00
14800;BME280;7491;57.750;11.970;2023-04-02T05:25:52;78431.22;;;-142.11;100.00
14800;BME280;7491;57.750;11.970;2023-04-02T05:28:25;78333.31;;;-142.11;100.00
14800;BME280;7491;57.750;11.970;2023-04-02T05:30:57;78229.28;;;-142.11;100.00
14800;BME280;7491;57.750;11.970;2023-04-02T05:33:27;78223.16;;;-142.11;100.00
14800;BME280;7491;57.750;11.970;2023-04-02T05:36:00;78098.75;;;-142.11;100.00
14800;BME280;7491;57.750;11.970;2023-04-02T05:38:31;77782.63;;;-142.11;100.00
14800;BME280;7491;57.750;11.970;2023-04-02T05:41:01;77597.03;;;-142.11;100.00
14800;BME280;7491;57.750;11.970;2023-04-02T05:43:31;77433.88;;;-142.11;100.00
14800;BME280;7491;57.750;11.970;2023-04-02T05:46:02;77448.16;;;-142.11;100.00
14800;BME280;7491;57.750;11.970;2023-04-02T05:48:36;77539.94;;;-142.11;98.72
14800;BME280;7491;57.750;11.970;2023-04-02T05:51:07;77531.78;;;-142.11;97.75
14800;BME280;7491;57.750;11.970;2023-04-02T05:53:39;77676.56;;;-142.11;100.00
14800;BME280;7491;57.750;11.970;2023-04-02T05:56:14;77682.69;;;-142.11;98.48
14800;BME280;7491;57.750;11.970;2023-04-02T05:58:47;77703.09;;;-142.11;100.00
14800;BME280;7491;57.750;11.970;2023-04-02T06:01:20;77750.00;;;-142.11;100.00
14800;BME280;7491;57.750;11.970;2023-04-02T06:03:53;77868.28;;;-142.11;100.00
14800;BME280;7491;57.750;11.970;2023-04-02T06:06:28;77909.06;;;-142.11;100.00
14800;BME280;7491;57.750;11.970;2023-04-02T06:09:04;77974.34;;;-142.11;100.00
14800;BME280;7491;57.750;11.970;2023-04-02T06:11:38;78084.47;;;-142.11;100.00
14800;BME280;7491;57.750;11.970;2023-04-02T06:14:08;78100.78;;;-142.11;100.00
14800;BME280;7491;57.750;11.970;2023-04-02T06:16:36;78092.63;;;-142.11;100.00
14800;BME280;7491;57.750;11.970;2023-04-02T06:19:07;78129.34;;;-142.11;100.00
14800;BME280;7491;57.750;11.970;2023-04-02T06:21:42;78111.00;;;-142.11;100.00
14800;BME280;7491;57.750;11.970;2023-04-02T06:24:12;78121.19;;;-142.11;100.00
14800;BME280;7491;57.750;11.970;2023-04-02T06:26:43;78141.59;;;-142.11;100.00
14800;BME280;7491;57.750;11.970;2023-04-02T06:29:17;78119.16;;;-142.11;100.00
14800;BME280;7491;57.750;11.970;2023-04-02T06:31:49;78133.44;;;-142.11;100.00
14800;BME280;7491;57.750;11.970;2023-04-02T06:34:17;78164.03;;;-142.11;100.00
14800;BME280;7491;57.750;11.970;2023-04-02T06:36:45;78159.94;;;-142.11;100.00
14800;BME280;7491;57.750;11.970;2023-04-02T06:39:17;78155.84;;;-142.11;100.00
14800;BME280;7491;57.750;11.970;2023-04-02T06:41:44;78155.84;;;-142.11;100.00
14800;BME280;7491;57.750;11.970;2023-04-02T06:44:15;78135.47;;;-142.11;100.00
14800;BME280;7491;57.750;11.970;2023-04-02T06:46:44;78117.09;;;-142.11;100.00
14800;BME280;7491;57.750;11.970;2023-04-02T06:49:17;78090.59;;;-142.11;100.00
14800;BME280;7491;57.750;11.970;2023-04-02T06:51:45;78108.94;;;-142.11;100.00
14800;BME280;7491;57.750;11.970;2023-04-02T06:54:16;78100.78;;;-142.11;100.00
14800;BME280;7491;57.750;11.970;2023-04-02T06:56:45;78084.47;;;-142.11;100.00
14800;BME280;7491;57.750;11.970;2023-04-02T06:59:12;78072.22;;;-142.11;100.00
14800;BME280;7491;57.750;11.970;2023-04-02T07:01:42;78064.06;;;-142.11;100.00
14800;BME280;7491;57.750;11.970;2023-04-02T07:04:10;78049.81;;;-142.11;100.00
14800;BME280;7491;57.750;11.970;2023-04-02T07:06:37;78062.03;;;-142.11;100.00
14800;BME280;7491;57.750;11.970;2023-04-02T07:09:05;78029.41;;;-142.11;100.00
14800;BME280;7491;57.750;11.970;2023-04-02T07:11:34;78033.47;;;-142.11;100.00
14800;BME280;7491;57.750;11.970;2023-04-02T07:14:00;78051.84;;;-142.11;98.65
14800;BME280;7491;57.750;11.970;2023-04-02T07:16:29;78041.63;;;-142.11;97.91
14800;BME280;7491;57.750;11.970;2023-04-02T07:18:57;78033.47;;;-142.11;99.17
14800;BME280;7491;57.750;11.970;2023-04-02T07:21:24;78039.59;;;-142.11;97.91
14800;BME280;7491;57.750;11.970;2023-04-02T07:23:51;78015.13;;;-142.11;98.13
14800;BME280;7491;57.750;11.970;2023-04-02T07:26:22;77976.38;;;-142.11;96.17
14800;BME280;7491;57.750;11.970;2023-04-02T07:28:51;77992.69;;;-142.11;93.83
14800;BME280;7491;57.750;11.970;2023-04-02T07:31:19;77996.78;;;-142.11;92.60
14800;BME280;7491;57.750;11.970;2023-04-02T07:33:47;77978.41;;;-142.11;90.89
14800;BME280;7491;57.750;11.970;2023-04-02T07:36:15;77964.13;;;-142.11;91.77
14800;BME280;7491;57.750;11.970;2023-04-02T07:38:42;77978.41;;;-142.11;89.26
14800;BME280;7491;57.750;11.970;2023-04-02T07:41:09;78019.22;;;-142.11;88.98
14800;BME280;7491;57.750;11.970;2023-04-02T07:43:36;78009.00;;;-142.11;88.29
14800;BME280;7491;57.750;11.970;2023-04-02T07:46:05;78002.88;;;-142.11;89.60
14800;BME280;7491;57.750;11.970;2023-04-02T07:48:32;77966.19;;;-142.11;88.74
14800;BME280;7491;57.750;11.970;2023-04-02T07:51:03;77964.13;;;-142.11;87.29
14800;BME280;7491;57.750;11.970;2023-04-02T07:53:32;77951.91;;;-142.11;87.08
14800;BME280;7491;57.750;11.970;2023-04-02T07:56:00;77953.94;;;-142.11;85.61
14800;BME280;7491;57.750;11.970;2023-04-02T07:58:28;77958.00;;;-142.11;84.38
14800;BME280;7491;57.750;11.970;2023-04-02T08:00:55;77931.50;;;-142.11;85.65
14800;BME280;7491;57.750;11.970;2023-04-02T08:03:23;77962.09;;;-142.11;84.14
14800;BME280;7491;57.750;11.970;2023-04-02T08:05:51;77931.50;;;-142.11;84.92
14800;BME280;7491;57.750;11.970;2023-04-02T08:08:21;77929.47;;;-142.11;83.71
14800;BME280;7491;57.750;11.970;2023-04-02T08:10:54;77917.22;;;-142.11;84.35
14800;BME280;7491;57.750;11.970;2023-04-02T08:13:20;77911.09;;;-142.11;83.00
14800;BME280;7491;57.750;11.970;2023-04-02T08:15:47;77894.78;;;-142.11;82.21
14800;BME280;7491;57.750;11.970;2023-04-02T08:18:14;77913.16;;;-142.11;80.89
14800;BME280;7491;57.750;11.970;2023-04-02T08:20:42;77896.84;;;-142.11;80.35
14800;BME280;7491;57.750;11.970;2023-04-02T08:23:12;77878.47;;;-142.11;79.96
14800;BME280;7491;57.750;11.970;2023-04-02T08:25:42;77888.69;;;-142.11;78.82
14800;BME280;7491;57.750;11.970;2023-04-02T08:28:08;77909.06;;;-142.11;79.50
14800;BME280;7491;57.750;11.970;2023-04-02T08:30:35;77898.88;;;-142.11;78.49
14800;BME280;7491;57.750;11.970;2023-04-02T08:33:02;77880.50;;;-142.11;77.86
14800;BME280;7491;57.750;11.970;2023-04-02T08:35:29;77858.09;;;-142.11;77.00
14800;BME280;7491;57.750;11.970;2023-04-02T08:37:58;77835.66;;;-142.11;75.68
14800;BME280;7491;57.750;11.970;2023-04-02T08:40:28;77821.38;;;-142.11;77.02
14800;BME280;7491;57.750;11.970;2023-04-02T08:43:16;77817.28;;;-142.11;73.42
14800;BME280;7491;57.750;11.970;2023-04-02T08:45:55;77819.34;;;-142.11;73.89
14800;BME280;7491;57.750;11.970;2023-04-02T08:48:28;77798.94;;;-142.11;72.83
14800;BME280;7491;57.750;11.970;2023-04-02T08:50:57;77805.06;;;-142.11;72.09
14800;BME280;7491;57.750;11.970;2023-04-02T08:53:28;77825.44;;;-142.11;70.98
14800;BME280;7491;57.750;11.970;2023-04-02T08:55:59;77835.66;;;-142.11;69.84
14800;BME280;7491;57.750;11.970;2023-04-02T08:58:38;77827.50;;;-142.11;69.58
14800;BME280;7491;57.750;11.970;2023-04-02T09:01:19;77833.59;;;-142.11;66.57
14800;BME280;7491;57.750;11.970;2023-04-02T09:03:49;77819.34;;;-142.11;67.16
14800;BME280;7491;57.750;11.970;2023-04-02T09:06:18;77811.16;;;-142.11;65.11
14800;BME280;7491;57.750;11.970;2023-04-02T09:08:50;77800.97;;;-142.11;65.90
14800;BME280;7491;57.750;11.970;2023-04-02T09:11:22;77792.81;;;-142.11;62.96
14800;BME280;7491;57.750;11.970;2023-04-02T09:13:54;77788.75;;;-142.11;61.96
14800;BME280;7491;57.750;11.970;2023-04-02T09:16:39;77772.41;;;-142.11;62.50
14800;BME280;7491;57.750;11.970;2023-04-02T09:19:20;77770.38;;;-142.11;60.20
14800;BME280;7491;57.750;11.970;2023-04-02T09:22:05;77758.16;;;-142.11;60.49
14800;BME280;7491;57.750;11.970;2023-04-02T09:24:36;77762.22;;;-142.11;59.64
14800;BME280;7491;57.750;11.970;2023-04-02T09:27:03;77739.78;;;-142.11;59.71
14800;BME280;7491;57.750;11.970;2023-04-02T09:29:45;77737.75;;;-142.11;61.06
14800;BME280;7491;57.750;11.970;2023-04-02T09:32:24;77729.59;;;-142.11;61.10
14800;BME280;7491;57.750;11.970;2023-04-02T09:35:08;77696.97;;;-142.11;61.11
14800;BME280;7491;57.750;11.970;2023-04-02T09:37:37;77705.13;;;-142.11;61.81
14800;BME280;7491;57.750;11.970;2023-04-02T09:40:25;77680.66;;;-142.11;63.04
14800;BME280;7491;57.750;11.970;2023-04-02T09:43:07;77664.34;;;-142.11;62.54
14800;BME280;7491;57.750;11.970;2023-04-02T09:45:35;77656.19;;;-142.11;62.34
14800;BME280;7491;57.750;11.970;2023-04-02T09:48:14;77680.66;;;-142.11;60.95
14800;BME280;7491;57.750;11.970;2023-04-02T09:50:43;77672.50;;;-142.11;62.88
14800;BME280;7491;57.750;11.970;2023-04-02T09:53:28;77654.13;;;-142.11;63.37
14800;BME280;7491;57.750;11.970;2023-04-02T09:56:13;77652.09;;;-142.11;63.24
14800;BME280;7491;57.750;11.970;2023-04-02T09:58:41;77666.38;;;-142.11;62.01
14800;BME280;7491;57.750;11.970;2023-04-02T10:01:25;77656.19;;;-142.11;62.82
14800;BME280;7491;57.750;11.970;2023-04-02T10:03:53;77694.91;;;-142.11;62.49
14800;BME280;7491;57.750;11.970;2023-04-02T10:06:20;77656.19;;;-142.11;63.73
14800;BME280;7491;57.750;11.970;2023-04-02T10:08:47;77637.81;;;-142.11;63.41
14800;BME280;7491;57.750;11.970;2023-04-02T10:11:18;77648.03;;;-142.11;63.47
14800;BME280;7491;57.750;11.970;2023-04-02T10:13:50;77658.22;;;-142.11;63.37
14800;BME280;7491;57.750;11.970;2023-04-02T10:16:22;77668.41;;;-142.11;61.95
14800;BME280;7491;57.750;11.970;2023-04-02T10:18:53;77668.41;;;-142.11;62.49
14800;BME280;7491;57.750;11.970;2023-04-02T10:21:24;77660.25;;;-142.11;62.33
14800;BME280;7491;57.750;11.970;2023-04-02T10:23:52;77656.19;;;-142.11;63.16
14800;BME280;7491;57.750;11.970;2023-04-02T10:26:46;77639.88;;;-142.11;64.72
14800;BME280;7491;57.750;11.970;2023-04-02T10:29:29;77637.81;;;-142.11;65.38
14800;BME280;7491;57.750;11.970;2023-04-02T10:32:05;77660.25;;;-142.11;64.03
14800;BME280;7491;57.750;11.970;2023-04-02T10:34:41;77658.22;;;-142.11;64.08
14800;BME280;7491;57.750;11.970;2023-04-02T10:37:24;77656.19;;;-142.11;64.38
14800;BME280;7491;57.750;11.970;2023-04-02T10:39:58;77641.91;;;-142.11;64.99
14800;BME280;7491;57.750;11.970;2023-04-02T10:42:34;77641.91;;;-142.11;64.94
14800;BME280;7491;57.750;11.970;2023-04-02T10:45:05;77617.44;;;-142.11;65.59
14800;BME280;7491;57.750;11.970;2023-04-02T10:47:46;77637.81;;;-142.11;66.33
14800;BME280;7491;57.750;11.970;2023-04-02T10:50:26;77627.63;;;-142.11;65.64
14800;BME280;7491;57.750;11.970;2023-04-02T10:53:03;77619.47;;;-142.11;66.08
14800;BME280;7491;57.750;11.970;2023-04-02T10:55:34;77619.47;;;-142.11;66.40
14800;BME280;7491;57.750;11.970;2023-04-02T10:58:15;77605.19;;;-142.11;65.99
14800;BME280;7491;57.750;11.970;2023-04-02T11:00:44;77605.19;;;-142.11;66.00
14800;BME280;7491;57.750;11.970;2023-04-02T11:03:14;77592.94;;;-142.11;66.64
14800;BME280;7491;57.750;11.970;2023-04-02T11:05:45;77611.31;;;-142.11;66.91
14800;BME280;7491;57.750;11.970;2023-04-02T11:08:17;77609.28;;;-142.11;66.53
14800;BME280;7491;57.750;11.970;2023-04-02T11:10:47;77584.78;;;-142.11;66.78
14800;BME280;7491;57.750;11.970;2023-04-02T11:13:20;77590.91;;;-142.11;67.19
14800;BME280;7491;57.750;11.970;2023-04-02T11:15:48;77595.00;;;-142.11;67.57
14800;BME280;7491;57.750;11.970;2023-04-02T11:18:25;77582.75;;;-142.11;67.77
14800;BME280;7491;57.750;11.970;2023-04-02T11:21:02;77586.84;;;-142.11;67.24
14800;BME280;7491;57.750;11.970;2023-04-02T11:23:35;77564.41;;;-142.11;67.62
14800;BME280;7491;57.750;11.970;2023-04-02T11:26:27;77574.59;;;-142.11;69.21
14800;BME280;7491;57.750;11.970;2023-04-02T11:29:05;77564.41;;;-142.11;68.83
14800;BME280;7491;57.750;11.970;2023-04-02T11:31:33;77574.59;;;-142.11;67.79
14800;BME280;7491;57.750;11.970;2023-04-02T11:34:00;77574.59;;;-142.11;68.31
14800;BME280;7491;57.750;11.970;2023-04-02T11:37:02;77574.59;;;-142.11;67.24
14800;BME280;7491;57.750;11.970;2023-04-02T11:39:48;77572.56;;;-142.11;68.63
14800;BME280;7491;57.750;11.970;2023-04-02T11:42:23;77539.94;;;-142.11;68.65
14800;BME280;7491;57.750;11.970;2023-04-02T11:44:51;77552.16;;;-142.11;67.11
14800;BME280;7491;57.750;11.970;2023-04-02T11:47:20;77546.06;;;-142.11;68.18
14800;BME280;7491;57.750;11.970;2023-04-02T11:50:22;77558.28;;;-142.11;67.31
14800;BME280;7491;57.750;11.970;2023-04-02T11:52:53;77556.25;;;-142.11;67.63
14800;BME280;7491;57.750;11.970;2023-04-02T11:55:24;77554.22;;;-142.11;66.65
14800;BME280;7491;57.750;11.970;2023-04-02T11:58:09;77570.53;;;-142.11;67.87
14800;BME280;7491;57.750;11.970;2023-04-02T12:07:03;77564.41;;;-142.11;68.56
14800;BME280;7491;57.750;11.970;2023-04-02T12:09:43;77566.44;;;-142.11;67.18
14800;BME280;7491;57.750;11.970;2023-04-02T12:12:25;77556.25;;;-142.11;67.67
14800;BME280;7491;57.750;11.970;2023-04-02T12:14:53;77552.16;;;-142.11;67.39
14800;BME280;7491;57.750;11.970;2023-04-02T12:17:27;77539.94;;;-142.11;68.00
14800;BME280;7491;57.750;11.970;2023-04-02T12:19:57;77548.09;;;-142.11;67.61
14800;BME280;7491;57.750;11.970;2023-04-02T12:22:27;77558.28;;;-142.11;67.16
14800;BME280;7491;57.750;11.970;2023-04-02T12:24:58;77560.31;;;-142.11;67.32
14800;BME280;7491;57.750;11.970;2023-04-02T12:27:27;77580.72;;;-142.11;66.69
14800;BME280;7491;57.750;11.970;2023-04-02T12:29:55;77578.69;;;-142.11;67.48
14800;BME280;7491;57.750;11.970;2023-04-02T12:32:28;77570.53;;;-142.11;66.61
14800;BME280;7491;57.750;11.970;2023-04-02T12:34:56;77544.00;;;-142.11;67.62
14800;BME280;7491;57.750;11.970;2023-04-02T12:37:25;77537.91;;;-142.11;67.13
14800;BME280;7491;57.750;11.970;2023-04-02T12:39:55;77539.94;;;-142.11;67.37
14800;BME280;7491;57.750;11.970;2023-04-02T12:42:31;77519.53;;;-142.11;67.47
14800;BME280;7491;57.750;11.970;2023-04-02T12:44:58;77513.41;;;-142.11;66.40
14800;BME280;7491;57.750;11.970;2023-04-02T12:47:27;77525.66;;;-142.11;66.63
14800;BME280;7491;57.750;11.970;2023-04-02T12:49:55;77519.53;;;-142.11;66.64
14800;BME280;7491;57.750;11.970;2023-04-02T12:52:25;77519.53;;;-142.11;66.60
14800;BME280;7491;57.750;11.970;2023-04-02T12:54:54;77539.94;;;-142.11;66.17
14800;BME280;7491;57.750;11.970;2023-04-02T12:57:34;77550.13;;;-142.11;66.21
14800;BME280;7491;57.750;11.970;2023-04-02T13:00:27;77562.38;;;-142.11;65.39
14800;BME280;7491;57.750;11.970;2023-04-02T13:03:14;77574.59;;;-142.11;66.25
14800;BME280;7491;57.750;11.970;2023-04-02T13:05:44;77572.56;;;-142.11;66.61
14800;BME280;7491;57.750;11.970;2023-04-02T13:08:16;77562.38;;;-142.11;65.95
14800;BME280;7491;57.750;11.970;2023-04-02T13:10:43;77548.09;;;-142.11;65.93